sensor_id;sensor_type;location;lat;lon;timestamp;P1;durP1;ratioP1;P2;durP2;ratioP2
72590;SDS011;60625;51.212;5.952;2023-03-14T00:04:13;10.50;;;1.70;;
72590;SDS011;60625;51.212;5.952;2023-03-14T00:09:13;5.90;;;1.50;;
72590;SDS011;60625;51.212;5.952;2023-03-14T00:14:14;10.50;;;1.30;;
72590;SDS011;60625;51.212;5.952;2023-03-14T00:19:16;6.50;;;1.40;;
72590;SDS011;60625;51.212;5.952;2023-03-14T00:24:16;9.20;;;1.10;;
72590;SDS011;60625;51.212;5.952;2023-03-14T00:29:16;10.10;;;1.20;;
72590;SDS011;60625;51.212;5.952;2023-03-14T00:34:20;6.20;;;0.90;;
72590;SDS011;60625;51.212;5.952;2023-03-14T00:39:20;7.10;;;1.00;;
72590;SDS011;60625;51.212;5.952;2023-03-14T00:44:21;7.90;;;1.00;;
72590;SDS011;60625;51.212;5.952;2023-03-14T00:49:21;5.30;;;1.10;;
72590;SDS011;60625;51.212;5.952;2023-03-14T00:54:25;8.30;;;1.00;;
72590;SDS011;60625;51.212;5.952;2023-03-14T00:59:25;5.40;;;0.90;;
72590;SDS011;60625;51.212;5.952;2023-03-14T01:04:26;6.40;;;1.20;;
72590;SDS011;60625;51.212;5.952;2023-03-14T01:09:28;6.80;;;1.10;;
72590;SDS011;60625;51.212;5.952;2023-03-14T01:14:29;7.40;;;0.80;;
72590;SDS011;60625;51.212;5.952;2023-03-14T01:19:30;6.00;;;0.70;;
72590;SDS011;60625;51.212;5.952;2023-03-14T01:24:30;4.60;;;0.70;;
72590;SDS011;60625;51.212;5.952;2023-03-14T01:29:31;7.50;;;0.80;;
72590;SDS011;60625;51.212;5.952;2023-03-14T01:34:32;6.90;;;0.80;;
72590;SDS011;60625;51.212;5.952;2023-03-14T01:39:32;3.70;;;0.70;;
72590;SDS011;60625;51.212;5.952;2023-03-14T01:44:59;7.30;;;1.30;;
72590;SDS011;60625;51.212;5.952;2023-03-14T01:50:08;5.80;;;1.20;;
72590;SDS011;60625;51.212;5.952;2023-03-14T01:55:14;8.00;;;1.30;;
72590;SDS011;60625;51.212;5.952;2023-03-14T02:00:21;6.10;;;1.00;;
72590;SDS011;60625;51.212;5.952;2023-03-14T02:05:25;6.80;;;1.00;;
72590;SDS011;60625;51.212;5.952;2023-03-14T02:10:42;10.70;;;1.00;;
72590;SDS011;60625;51.212;5.952;2023-03-14T02:15:48;9.10;;;1.00;;
72590;SDS011;60625;51.212;5.952;2023-03-14T02:21:18;9.80;;;1.20;;
72590;SDS011;60625;51.212;5.952;2023-03-14T02:26:28;9.30;;;1.30;;
72590;SDS011;60625;51.212;5.952;2023-03-14T02:31:34;8.80;;;1.10;;
72590;SDS011;60625;51.212;5.952;2023-03-14T02:36:34;11.00;;;1.10;;
72590;SDS011;60625;51.212;5.952;2023-03-14T02:41:35;5.70;;;1.00;;
72590;SDS011;60625;51.212;5.952;2023-03-14T02:46:38;6.90;;;0.90;;
72590;SDS011;60625;51.212;5.952;2023-03-14T02:51:40;7.10;;;1.00;;
72590;SDS011;60625;51.212;5.952;2023-03-14T02:56:42;9.20;;;0.90;;
72590;SDS011;60625;51.212;5.952;2023-03-14T03:01:46;10.80;;;1.10;;
72590;SDS011;60625;51.212;5.952;2023-03-14T03:06:46;5.80;;;0.90;;
72590;SDS011;60625;51.212;5.952;2023-03-14T03:11:47;8.40;;;1.40;;
72590;SDS011;60625;51.212;5.952;2023-03-14T03:16:51;10.50;;;1.30;;
72590;SDS011;60625;51.212;5.952;2023-03-14T03:21:52;5.80;;;1.20;;
72590;SDS011;60625;51.212;5.952;2023-03-14T03:26:53;9.20;;;1.00;;
72590;SDS011;60625;51.212;5.952;2023-03-14T03:31:54;7.80;;;1.20;;
72590;SDS011;60625;51.212;5.952;2023-03-14T03:36:57;6.10;;;0.90;;
72590;SDS011;60625;51.212;5.952;2023-03-14T03:41:59;10.60;;;0.90;;
72590;SDS011;60625;51.212;5.952;2023-03-14T03:46:59;7.20;;;0.60;;
72590;SDS011;60625;51.212;5.952;2023-03-14T03:52:00;4.70;;;0.90;;
72590;SDS011;60625;51.212;5.952;2023-03-14T03:57:01;7.40;;;0.60;;
72590;SDS011;60625;51.212;5.952;2023-03-14T04:02:02;4.60;;;0.60;;
72590;SDS011;60625;51.212;5.952;2023-03-14T04:07:02;4.10;;;0.60;;
72590;SDS011;60625;51.212;5.952;2023-03-14T04:12:03;4.80;;;0.60;;
72590;SDS011;60625;51.212;5.952;2023-03-14T04:17:26;4.60;;;1.10;;
72590;SDS011;60625;51.212;5.952;2023-03-14T04:22:27;5.70;;;0.40;;
72590;SDS011;60625;51.212;5.952;2023-03-14T04:27:28;2.30;;;0.40;;
72590;SDS011;60625;51.212;5.952;2023-03-14T04:32:29;5.30;;;0.60;;
72590;SDS011;60625;51.212;5.952;2023-03-14T04:37:31;4.90;;;0.60;;
72590;SDS011;60625;51.212;5.952;2023-03-14T04:42:32;2.60;;;0.70;;
72590;SDS011;60625;51.212;5.952;2023-03-14T04:47:32;4.70;;;0.90;;
72590;SDS011;60625;51.212;5.952;2023-03-14T04:52:34;6.70;;;1.00;;
72590;SDS011;60625;51.212;5.952;2023-03-14T04:57:36;6.50;;;1.10;;
72590;SDS011;60625;51.212;5.952;2023-03-14T05:02:36;6.50;;;1.40;;
72590;SDS011;60625;51.212;5.952;2023-03-14T05:07:57;8.30;;;1.80;;
72590;SDS011;60625;51.212;5.952;2023-03-14T05:13:12;6.10;;;1.40;;
72590;SDS011;60625;51.212;5.952;2023-03-14T05:18:31;5.90;;;1.50;;
72590;SDS011;60625;51.212;5.952;2023-03-14T05:23:49;5.80;;;1.70;;
72590;SDS011;60625;51.212;5.952;2023-03-14T05:29:20;9.20;;;1.90;;
72590;SDS011;60625;51.212;5.952;2023-03-14T05:34:38;6.00;;;1.70;;
72590;SDS011;60625;51.212;5.952;2023-03-14T05:40:02;5.60;;;2.00;;
72590;SDS011;60625;51.212;5.952;2023-03-14T05:45:15;5.70;;;2.00;;
72590;SDS011;60625;51.212;5.952;2023-03-14T05:50:34;4.40;;;1.70;;
72590;SDS011;60625;51.212;5.952;2023-03-14T05:56:05;4.50;;;2.00;;
72590;SDS011;60625;51.212;5.952;2023-03-14T06:01:20;5.70;;;1.20;;
72590;SDS011;60625;51.212;5.952;2023-03-14T06:06:39;4.30;;;1.20;;
72590;SDS011;60625;51.212;5.952;2023-03-14T06:11:40;4.10;;;0.90;;
72590;SDS011;60625;51.212;5.952;2023-03-14T06:16:41;4.70;;;0.90;;
72590;SDS011;60625;51.212;5.952;2023-03-14T06:21:42;3.80;;;0.80;;
72590;SDS011;60625;51.212;5.952;2023-03-14T06:26:43;4.00;;;0.90;;
72590;SDS011;60625;51.212;5.952;2023-03-14T06:31:44;3.30;;;0.60;;
72590;SDS011;60625;51.212;5.952;2023-03-14T06:36:45;4.70;;;0.70;;
72590;SDS011;60625;51.212;5.952;2023-03-14T06:41:46;2.70;;;0.70;;
72590;SDS011;60625;51.212;5.952;2023-03-14T06:46:47;3.90;;;0.60;;
72590;SDS011;60625;51.212;5.952;2023-03-14T06:51:47;4.90;;;1.00;;
72590;SDS011;60625;51.212;5.952;2023-03-14T06:56:48;3.20;;;0.80;;
72590;SDS011;60625;51.212;5.952;2023-03-14T07:01:49;6.60;;;0.80;;
72590;SDS011;60625;51.212;5.952;2023-03-14T07:06:50;4.30;;;0.80;;
72590;SDS011;60625;51.212;5.952;2023-03-14T07:11:51;3.10;;;0.90;;
72590;SDS011;60625;51.212;5.952;2023-03-14T07:16:52;4.60;;;0.90;;
72590;SDS011;60625;51.212;5.952;2023-03-14T07:21:53;2.90;;;0.90;;
72590;SDS011;60625;51.212;5.952;2023-03-14T07:26:57;5.40;;;1.30;;
72590;SDS011;60625;51.212;5.952;2023-03-14T07:31:57;5.10;;;1.30;;
72590;SDS011;60625;51.212;5.952;2023-03-14T07:36:58;3.80;;;1.30;;
72590;SDS011;60625;51.212;5.952;2023-03-14T07:41:58;4.10;;;1.50;;
72590;SDS011;60625;51.212;5.952;2023-03-14T07:46:59;6.10;;;2.10;;
72590;SDS011;60625;51.212;5.952;2023-03-14T07:51:59;6.10;;;1.80;;
72590;SDS011;60625;51.212;5.952;2023-03-14T07:57:00;4.70;;;1.90;;
72590;SDS011;60625;51.212;5.952;2023-03-14T08:02:01;4.40;;;1.80;;
72590;SDS011;60625;51.212;5.952;2023-03-14T08:07:01;4.40;;;1.30;;
72590;SDS011;60625;51.212;5.952;2023-03-14T08:12:01;4.30;;;1.20;;
72590;SDS011;60625;51.212;5.952;2023-03-14T08:17:02;5.20;;;1.10;;
72590;SDS011;60625;51.212;5.952;2023-03-14T08:22:03;3.50;;;0.70;;
72590;SDS011;60625;51.212;5.952;2023-03-14T08:27:04;3.20;;;0.90;;
72590;SDS011;60625;51.212;5.952;2023-03-14T08:32:05;2.00;;;0.70;;
72590;SDS011;60625;51.212;5.952;2023-03-14T08:37:05;2.50;;;0.60;;
72590;SDS011;60625;51.212;5.952;2023-03-14T08:42:06;1.60;;;0.50;;
72590;SDS011;60625;51.212;5.952;2023-03-14T08:47:06;1.70;;;0.60;;
72590;SDS011;60625;51.212;5.952;2023-03-14T08:52:07;2.60;;;0.90;;
72590;SDS011;60625;51.212;5.952;2023-03-14T08:57:08;2.90;;;1.20;;
72590;SDS011;60625;51.212;5.952;2023-03-14T09:02:10;2.80;;;1.00;;
72590;SDS011;60625;51.212;5.952;2023-03-14T09:07:11;3.50;;;1.60;;
72590;SDS011;60625;51.212;5.952;2023-03-14T09:12:12;4.00;;;1.00;;
72590;SDS011;60625;51.212;5.952;2023-03-14T09:17:13;3.00;;;0.80;;
72590;SDS011;60625;51.212;5.952;2023-03-14T09:22:14;2.80;;;0.60;;
72590;SDS011;60625;51.212;5.952;2023-03-14T09:27:14;2.70;;;0.50;;
72590;SDS011;60625;51.212;5.952;2023-03-14T09:32:15;1.30;;;0.30;;
72590;SDS011;60625;51.212;5.952;2023-03-14T09:37:15;3.80;;;0.90;;
72590;SDS011;60625;51.212;5.952;2023-03-14T09:42:18;2.90;;;0.70;;
72590;SDS011;60625;51.212;5.952;2023-03-14T09:47:23;2.20;;;0.30;;
72590;SDS011;60625;51.212;5.952;2023-03-14T09:52:28;3.90;;;0.40;;
72590;SDS011;60625;51.212;5.952;2023-03-14T09:57:34;2.00;;;0.50;;
72590;SDS011;60625;51.212;5.952;2023-03-14T10:02:35;2.50;;;0.50;;
72590;SDS011;60625;51.212;5.952;2023-03-14T10:07:36;3.50;;;0.80;;
72590;SDS011;60625;51.212;5.952;2023-03-14T10:12:38;2.90;;;0.60;;
72590;SDS011;60625;51.212;5.952;2023-03-14T10:17:51;4.30;;;1.10;;
72590;SDS011;60625;51.212;5.952;2023-03-14T10:22:52;4.50;;;1.50;;
72590;SDS011;60625;51.212;5.952;2023-03-14T10:27:53;6.20;;;1.80;;
72590;SDS011;60625;51.212;5.952;2023-03-14T10:32:53;3.50;;;1.30;;
72590;SDS011;60625;51.212;5.952;2023-03-14T10:38:00;4.60;;;1.30;;
72590;SDS011;60625;51.212;5.952;2023-03-14T10:43:04;1.60;;;0.50;;
72590;SDS011;60625;51.212;5.952;2023-03-14T10:48:21;1.40;;;0.30;;
72590;SDS011;60625;51.212;5.952;2023-03-14T10:53:24;1.80;;;0.40;;
72590;SDS011;60625;51.212;5.952;2023-03-14T10:58:27;2.10;;;0.40;;
72590;SDS011;60625;51.212;5.952;2023-03-14T11:03:31;4.30;;;0.50;;
72590;SDS011;60625;51.212;5.952;2023-03-14T11:14:39;3.20;;;0.60;;
72590;SDS011;60625;51.212;5.952;2023-03-14T11:20:57;3.10;;;0.60;;
72590;SDS011;60625;51.212;5.952;2023-03-14T11:31:26;6.50;;;0.90;;
72590;SDS011;60625;51.212;5.952;2023-03-14T11:36:39;6.40;;;0.90;;
72590;SDS011;60625;51.212;5.952;2023-03-14T11:41:45;8.00;;;1.00;;
72590;SDS011;60625;51.212;5.952;2023-03-14T11:47:01;7.90;;;1.00;;
72590;SDS011;60625;51.212;5.952;2023-03-14T11:52:34;5.10;;;0.90;;
72590;SDS011;60625;51.212;5.952;2023-03-14T11:57:37;8.20;;;0.70;;
72590;SDS011;60625;51.212;5.952;2023-03-14T12:02:48;11.40;;;1.40;;
72590;SDS011;60625;51.212;5.952;2023-03-14T12:13:10;10.70;;;1.20;;
72590;SDS011;60625;51.212;5.952;2023-03-14T12:18:20;10.70;;;1.20;;
72590;SDS011;60625;51.212;5.952;2023-03-14T12:23:28;10.60;;;0.80;;
72590;SDS011;60625;51.212;5.952;2023-03-14T12:50:31;17.00;;;1.20;;
72590;SDS011;60625;51.212;5.952;2023-03-14T12:55:46;8.90;;;1.10;;
72590;SDS011;60625;51.212;5.952;2023-03-14T13:01:00;11.90;;;1.30;;
72590;SDS011;60625;51.212;5.952;2023-03-14T13:06:03;14.80;;;1.80;;
72590;SDS011;60625;51.212;5.952;2023-03-14T13:11:08;9.40;;;1.50;;
72590;SDS011;60625;51.212;5.952;2023-03-14T13:16:21;8.70;;;0.70;;
72590;SDS011;60625;51.212;5.952;2023-03-14T13:21:24;10.60;;;1.00;;
72590;SDS011;60625;51.212;5.952;2023-03-14T13:26:41;9.40;;;1.20;;
72590;SDS011;60625;51.212;5.952;2023-03-14T13:31:48;10.20;;;1.00;;
72590;SDS011;60625;51.212;5.952;2023-03-14T13:36:52;12.60;;;1.60;;
72590;SDS011;60625;51.212;5.952;2023-03-14T13:41:54;5.70;;;1.00;;
72590;SDS011;60625;51.212;5.952;2023-03-14T13:47:00;13.70;;;1.40;;
72590;SDS011;60625;51.212;5.952;2023-03-14T13:52:02;13.80;;;1.40;;
72590;SDS011;60625;51.212;5.952;2023-03-14T13:57:05;9.20;;;1.10;;
72590;SDS011;60625;51.212;5.952;2023-03-14T14:02:13;14.00;;;1.70;;
72590;SDS011;60625;51.212;5.952;2023-03-14T14:07:16;10.70;;;1.10;;
72590;SDS011;60625;51.212;5.952;2023-03-14T14:12:27;11.90;;;1.30;;
72590;SDS011;60625;51.212;5.952;2023-03-14T14:17:37;9.70;;;1.40;;
72590;SDS011;60625;51.212;5.952;2023-03-14T14:22:40;10.80;;;1.50;;
72590;SDS011;60625;51.212;5.952;2023-03-14T14:27:47;12.40;;;1.80;;
72590;SDS011;60625;51.212;5.952;2023-03-14T14:32:51;10.60;;;1.30;;
72590;SDS011;60625;51.212;5.952;2023-03-14T14:37:52;11.20;;;0.90;;
72590;SDS011;60625;51.212;5.952;2023-03-14T14:42:53;7.10;;;0.70;;
72590;SDS011;60625;51.212;5.952;2023-03-14T14:47:58;8.60;;;0.90;;
72590;SDS011;60625;51.212;5.952;2023-03-14T14:58:29;8.20;;;1.10;;
72590;SDS011;60625;51.212;5.952;2023-03-14T15:03:34;8.00;;;0.90;;
72590;SDS011;60625;51.212;5.952;2023-03-14T15:08:36;4.10;;;0.50;;
72590;SDS011;60625;51.212;5.952;2023-03-14T15:13:37;9.30;;;1.20;;
72590;SDS011;60625;51.212;5.952;2023-03-14T15:18:38;7.80;;;0.90;;
72590;SDS011;60625;51.212;5.952;2023-03-14T15:23:38;5.60;;;0.80;;
72590;SDS011;60625;51.212;5.952;2023-03-14T15:28:39;7.60;;;0.80;;
72590;SDS011;60625;51.212;5.952;2023-03-14T15:33:39;4.10;;;0.50;;
72590;SDS011;60625;51.212;5.952;2023-03-14T15:38:40;9.20;;;1.50;;
72590;SDS011;60625;51.212;5.952;2023-03-14T15:43:41;9.60;;;1.30;;
72590;SDS011;60625;51.212;5.952;2023-03-14T15:48:41;6.60;;;0.90;;
72590;SDS011;60625;51.212;5.952;2023-03-14T15:53:42;7.70;;;0.90;;
72590;SDS011;60625;51.212;5.952;2023-03-14T15:58:44;8.70;;;0.90;;
72590;SDS011;60625;51.212;5.952;2023-03-14T16:03:46;11.60;;;0.70;;
72590;SDS011;60625;51.212;5.952;2023-03-14T16:08:48;6.70;;;0.80;;
72590;SDS011;60625;51.212;5.952;2023-03-14T16:13:49;8.70;;;0.80;;
72590;SDS011;60625;51.212;5.952;2023-03-14T16:18:49;7.50;;;1.20;;
72590;SDS011;60625;51.212;5.952;2023-03-14T16:23:50;5.40;;;0.70;;
72590;SDS011;60625;51.212;5.952;2023-03-14T16:28:50;9.40;;;0.80;;
72590;SDS011;60625;51.212;5.952;2023-03-14T16:33:51;9.10;;;0.70;;
72590;SDS011;60625;51.212;5.952;2023-03-14T16:38:52;10.70;;;0.90;;
72590;SDS011;60625;51.212;5.952;2023-03-14T16:43:52;10.60;;;1.10;;
72590;SDS011;60625;51.212;5.952;2023-03-14T16:48:53;8.40;;;0.90;;
72590;SDS011;60625;51.212;5.952;2023-03-14T16:53:54;9.20;;;1.00;;
72590;SDS011;60625;51.212;5.952;2023-03-14T16:58:55;7.70;;;0.70;;
72590;SDS011;60625;51.212;5.952;2023-03-14T17:03:55;8.40;;;1.00;;
72590;SDS011;60625;51.212;5.952;2023-03-14T17:08:56;7.30;;;1.00;;
72590;SDS011;60625;51.212;5.952;2023-03-14T17:13:58;5.80;;;0.70;;
72590;SDS011;60625;51.212;5.952;2023-03-14T17:18:59;6.00;;;0.70;;
72590;SDS011;60625;51.212;5.952;2023-03-14T17:23:59;4.90;;;0.90;;
72590;SDS011;60625;51.212;5.952;2023-03-14T17:29:00;5.10;;;0.70;;
72590;SDS011;60625;51.212;5.952;2023-03-14T17:34:00;6.90;;;1.00;;
72590;SDS011;60625;51.212;5.952;2023-03-14T17:39:01;9.00;;;0.90;;
72590;SDS011;60625;51.212;5.952;2023-03-14T17:44:02;8.60;;;0.90;;
72590;SDS011;60625;51.212;5.952;2023-03-14T17:49:02;5.00;;;0.90;;
72590;SDS011;60625;51.212;5.952;2023-03-14T17:54:03;9.30;;;1.30;;
72590;SDS011;60625;51.212;5.952;2023-03-14T17:59:03;6.30;;;0.80;;
72590;SDS011;60625;51.212;5.952;2023-03-14T18:04:03;12.00;;;1.10;;
72590;SDS011;60625;51.212;5.952;2023-03-14T18:09:04;7.10;;;1.10;;
72590;SDS011;60625;51.212;5.952;2023-03-14T18:14:05;7.70;;;1.00;;
72590;SDS011;60625;51.212;5.952;2023-03-14T18:19:06;5.10;;;0.90;;
72590;SDS011;60625;51.212;5.952;2023-03-14T18:24:07;8.90;;;1.10;;
72590;SDS011;60625;51.212;5.952;2023-03-14T18:29:07;6.20;;;0.80;;
72590;SDS011;60625;51.212;5.952;2023-03-14T18:34:09;10.20;;;1.40;;
72590;SDS011;60625;51.212;5.952;2023-03-14T18:39:10;12.40;;;1.30;;
72590;SDS011;60625;51.212;5.952;2023-03-14T18:44:11;10.00;;;1.30;;
72590;SDS011;60625;51.212;5.952;2023-03-14T18:49:11;7.50;;;1.00;;
72590;SDS011;60625;51.212;5.952;2023-03-14T18:54:13;14.90;;;1.50;;
72590;SDS011;60625;51.212;5.952;2023-03-14T18:59:13;12.60;;;1.40;;
72590;SDS011;60625;51.212;5.952;2023-03-14T19:04:14;6.80;;;1.30;;
72590;SDS011;60625;51.212;5.952;2023-03-14T19:09:14;9.50;;;1.50;;
72590;SDS011;60625;51.212;5.952;2023-03-14T19:14:15;12.60;;;2.00;;
72590;SDS011;60625;51.212;5.952;2023-03-14T19:19:19;8.40;;;1.90;;
72590;SDS011;60625;51.212;5.952;2023-03-14T19:24:20;6.00;;;1.70;;
72590;SDS011;60625;51.212;5.952;2023-03-14T19:29:22;10.00;;;1.50;;
72590;SDS011;60625;51.212;5.952;2023-03-14T19:34:22;8.60;;;1.50;;
72590;SDS011;60625;51.212;5.952;2023-03-14T19:39:23;9.90;;;1.40;;
72590;SDS011;60625;51.212;5.952;2023-03-14T19:44:24;7.00;;;1.40;;
72590;SDS011;60625;51.212;5.952;2023-03-14T19:49:26;13.10;;;1.10;;
72590;SDS011;60625;51.212;5.952;2023-03-14T19:54:27;6.70;;;0.80;;
72590;SDS011;60625;51.212;5.952;2023-03-14T19:59:28;7.50;;;1.30;;
72590;SDS011;60625;51.212;5.952;2023-03-14T20:04:29;8.80;;;1.00;;
72590;SDS011;60625;51.212;5.952;2023-03-14T20:09:30;8.40;;;0.90;;
72590;SDS011;60625;51.212;5.952;2023-03-14T20:14:31;9.50;;;1.20;;
72590;SDS011;60625;51.212;5.952;2023-03-14T20:19:31;7.00;;;1.00;;
72590;SDS011;60625;51.212;5.952;2023-03-14T20:24:32;12.70;;;1.10;;
72590;SDS011;60625;51.212;5.952;2023-03-14T20:29:33;9.70;;;1.50;;
72590;SDS011;60625;51.212;5.952;2023-03-14T20:34:33;10.50;;;1.30;;
72590;SDS011;60625;51.212;5.952;2023-03-14T20:39:34;7.10;;;1.70;;
72590;SDS011;60625;51.212;5.952;2023-03-14T20:44:35;9.90;;;2.30;;
72590;SDS011;60625;51.212;5.952;2023-03-14T20:49:35;12.80;;;1.50;;
72590;SDS011;60625;51.212;5.952;2023-03-14T20:54:36;15.30;;;2.20;;
72590;SDS011;60625;51.212;5.952;2023-03-14T20:59:36;11.70;;;2.20;;
72590;SDS011;60625;51.212;5.952;2023-03-14T21:04:37;11.40;;;1.80;;
72590;SDS011;60625;51.212;5.952;2023-03-14T21:09:38;13.20;;;1.70;;
72590;SDS011;60625;51.212;5.952;2023-03-14T21:14:38;8.80;;;1.50;;
72590;SDS011;60625;51.212;5.952;2023-03-14T21:19:39;8.60;;;2.40;;
72590;SDS011;60625;51.212;5.952;2023-03-14T21:24:40;12.00;;;1.80;;
72590;SDS011;60625;51.212;5.952;2023-03-14T21:29:40;13.70;;;2.00;;
72590;SDS011;60625;51.212;5.952;2023-03-14T21:34:41;12.80;;;2.20;;
72590;SDS011;60625;51.212;5.952;2023-03-14T21:39:41;14.00;;;1.80;;
72590;SDS011;60625;51.212;5.952;2023-03-14T21:44:42;15.80;;;2.00;;
72590;SDS011;60625;51.212;5.952;2023-03-14T21:49:48;10.70;;;1.60;;
72590;SDS011;60625;51.212;5.952;2023-03-14T21:54:50;16.80;;;1.80;;
72590;SDS011;60625;51.212;5.952;2023-03-14T21:59:50;15.40;;;1.60;;
72590;SDS011;60625;51.212;5.952;2023-03-14T22:04:51;10.00;;;2.20;;
72590;SDS011;60625;51.212;5.952;2023-03-14T22:09:53;11.40;;;1.90;;
72590;SDS011;60625;51.212;5.952;2023-03-14T22:14:55;9.20;;;2.10;;
72590;SDS011;60625;51.212;5.952;2023-03-14T22:19:56;16.40;;;2.60;;
72590;SDS011;60625;51.212;5.952;2023-03-14T22:24:56;14.10;;;2.10;;
72590;SDS011;60625;51.212;5.952;2023-03-14T22:29:57;17.80;;;2.00;;
72590;SDS011;60625;51.212;5.952;2023-03-14T22:34:57;12.70;;;2.60;;
72590;SDS011;60625;51.212;5.952;2023-03-14T22:39:58;13.00;;;2.20;;
72590;SDS011;60625;51.212;5.952;2023-03-14T22:44:59;15.10;;;2.80;;
72590;SDS011;60625;51.212;5.952;2023-03-14T22:49:59;9.70;;;2.40;;
72590;SDS011;60625;51.212;5.952;2023-03-14T22:55:01;11.10;;;2.80;;
72590;SDS011;60625;51.212;5.952;2023-03-14T23:00:03;10.20;;;2.80;;
72590;SDS011;60625;51.212;5.952;2023-03-14T23:05:11;12.70;;;2.60;;
72590;SDS011;60625;51.212;5.952;2023-03-14T23:10:11;10.30;;;3.00;;
72590;SDS011;60625;51.212;5.952;2023-03-14T23:15:12;15.90;;;3.40;;
72590;SDS011;60625;51.212;5.952;2023-03-14T23:20:17;15.00;;;2.90;;
72590;SDS011;60625;51.212;5.952;2023-03-14T23:25:17;8.40;;;3.10;;
72590;SDS011;60625;51.212;5.952;2023-03-14T23:30:19;7.00;;;2.30;;
72590;SDS011;60625;51.212;5.952;2023-03-14T23:35:20;9.80;;;2.80;;
72590;SDS011;60625;51.212;5.952;2023-03-14T23:40:20;10.50;;;3.10;;
72590;SDS011;60625;51.212;5.952;2023-03-14T23:45:21;10.00;;;2.40;;
72590;SDS011;60625;51.212;5.952;2023-03-14T23:50:23;13.60;;;3.00;;
72590;SDS011;60625;51.212;5.952;2023-03-14T23:55:23;8.80;;;2.90;;
